Time;durP1;ratioP1;P1;durP2;ratioP2;P2;SDS_P1;SDS_P2;PMS_P1;PMS_P2;Temp;Humidity;BMP_temperature;BMP_pressure;BME280_temperature;BME280_humidity;BME280_pressure;Samples;Min_cycle;Max_cycle;Signal;HPM_P1;HPM_P2
2024/01/26 00:00:17;;;;;;;17.55;15.10;;;21.50;50.30;;;;;;5078848;28;20032;-64
2024/01/26 00:02:43;;;;;;;18.77;15.50;;;21.60;50.40;;;;;;5080474;28;20314;-65
2024/01/26 00:05:09;;;;;;;17.58;15.25;;;21.50;50.40;;;;;;5078319;28;20192;-65
2024/01/26 00:07:34;;;;;;;17.63;15.07;;;21.50;50.80;;;;;;5077408;28;20028;-65
2024/01/26 00:10:00;;;;;;;17.58;14.80;;;21.50;50.40;;;;;;5081873;28;20058;-65
2024/01/26 00:12:25;;;;;;;17.27;15.02;;;21.50;50.40;;;;;;5080760;28;20043;-65
2024/01/26 00:14:51;;;;;;;19.20;16.15;;;21.50;50.40;;;;;;5078698;28;20036;-65
2024/01/26 00:17:17;;;;;;;18.77;16.30;;;21.50;50.40;;;;;;5070657;28;20432;-65
2024/01/26 00:19:42;;;;;;;16.98;14.75;;;21.40;50.30;;;;;;5078696;28;20396;-66
2024/01/26 00:22:08;;;;;;;16.33;14.63;;;21.40;50.40;;;;;;5082117;28;20106;-65
2024/01/26 00:24:34;;;;;;;17.55;15.20;;;21.40;50.40;;;;;;5079111;28;20112;-66
2024/01/26 00:27:00;;;;;;;16.48;14.70;;;21.40;50.40;;;;;;5079163;28;20028;-65
2024/01/26 00:29:25;;;;;;;17.88;15.50;;;21.40;50.40;;;;;;5080726;28;20040;-66
2024/01/26 00:31:51;;;;;;;16.40;14.70;;;21.40;50.40;;;;;;5080072;28;20510;-65
2024/01/26 00:34:17;;;;;;;16.75;14.95;;;21.40;50.40;;;;;;5079143;28;20032;-66
2024/01/26 00:36:44;;;;;;;16.63;14.23;;;21.40;50.50;;;;;;5078408;28;20396;-66
2024/01/26 00:39:10;;;;;;;16.77;14.48;;;21.40;50.40;;;;;;5078197;28;20027;-66
2024/01/26 00:41:36;;;;;;;16.88;14.32;;;21.40;50.40;;;;;;5078478;28;20054;-66
2024/01/26 00:44:02;;;;;;;17.40;14.88;;;21.30;50.40;;;;;;5078969;28;20031;-66
2024/01/26 00:46:28;;;;;;;15.98;14.23;;;21.30;50.40;;;;;;5078804;28;20115;-66
2024/01/26 00:48:54;;;;;;;16.85;14.40;;;21.30;50.40;;;;;;5080103;28;20103;-66
2024/01/26 00:51:19;;;;;;;15.30;13.70;;;21.30;50.40;;;;;;5078015;28;20024;-66
2024/01/26 00:53:45;;;;;;;16.10;14.40;;;21.30;50.40;;;;;;5069486;28;20092;-66
2024/01/26 00:56:11;;;;;;;15.32;13.38;;;21.30;50.40;;;;;;5078798;28;20031;-66
2024/01/26 00:58:36;;;;;;;15.02;13.40;;;21.30;50.40;;;;;;5075431;28;20021;-66
2024/01/26 01:01:03;;;;;;;16.42;13.98;;;21.30;50.50;;;;;;5069259;28;20029;-66
2024/01/26 01:03:29;;;;;;;15.43;13.77;;;21.30;50.50;;;;;;5078598;28;20082;-66
2024/01/26 01:05:56;;;;;;;15.10;12.95;;;21.30;50.50;;;;;;5077709;28;20039;-66
2024/01/26 01:08:21;;;;;;;16.52;13.93;;;21.30;50.50;;;;;;5079316;28;20028;-66
2024/01/26 01:10:47;;;;;;;15.02;13.18;;;21.20;50.40;;;;;;5069636;28;20052;-64
2024/01/26 01:13:14;;;;;;;15.35;13.18;;;21.20;50.40;;;;;;5079521;28;20140;-65
2024/01/26 01:15:40;;;;;;;15.38;13.77;;;21.20;50.40;;;;;;5078895;28;20048;-65
2024/01/26 01:18:06;;;;;;;14.30;12.57;;;21.20;50.40;;;;;;5080122;28;20500;-64
2024/01/26 01:20:31;;;;;;;15.50;12.55;;;21.20;50.40;;;;;;5080079;28;20472;-65
2024/01/26 01:22:58;;;;;;;14.98;12.55;;;21.20;50.40;;;;;;5069711;28;20399;-65
2024/01/26 01:25:25;;;;;;;14.02;12.52;;;21.20;50.40;;;;;;5078645;28;20021;-65
2024/01/26 01:27:50;;;;;;;15.82;13.35;;;21.20;50.40;;;;;;5068897;28;20407;-65
2024/01/26 01:30:17;;;;;;;14.23;12.65;;;21.20;50.40;;;;;;5078536;28;20032;-67
2024/01/26 01:32:42;;;;;;;13.32;11.90;;;21.20;50.50;;;;;;5077587;28;20493;-67
2024/01/26 01:35:08;;;;;;;13.18;11.70;;;21.20;50.50;;;;;;5076225;28;20118;-67
2024/01/26 01:37:33;;;;;;;13.93;12.48;;;21.10;50.40;;;;;;5078721;28;20595;-67
2024/01/26 01:39:59;;;;;;;13.45;12.05;;;21.10;50.40;;;;;;5079942;28;20104;-67
2024/01/26 01:42:25;;;;;;;13.23;11.48;;;21.10;50.40;;;;;;5078179;28;20025;-67
2024/01/26 01:44:51;;;;;;;13.10;11.73;;;21.10;50.40;;;;;;5078629;28;20131;-67
2024/01/26 01:47:17;;;;;;;14.10;11.98;;;21.10;50.40;;;;;;5083721;28;20032;-67
2024/01/26 01:49:43;;;;;;;12.95;11.57;;;21.10;50.40;;;;;;5078014;28;20473;-66
2024/01/26 01:52:13;;;;;;;12.75;11.45;;;21.10;50.50;;;;;;5081883;28;20492;-66
2024/01/26 01:54:39;;;;;;;;;;;21.10;50.50;;;;;;5083809;28;20020;-66
2024/01/26 01:57:05;;;;;;;13.60;11.45;;;21.10;50.50;;;;;;5085231;28;20351;-66
2024/01/26 01:59:31;;;;;;;12.75;10.95;;;21.10;50.50;;;;;;5083000;28;20021;-66
2024/01/26 02:01:57;;;;;;;12.20;10.82;;;21.10;50.50;;;;;;5082175;28;20024;-66
2024/01/26 02:04:22;;;;;;;13.40;11.57;;;21.10;50.50;;;;;;5081970;28;20392;-66
2024/01/26 02:06:55;;;;;;;13.02;11.05;;;21.00;50.50;;;;;;5081682;28;20039;-66
2024/01/26 02:09:22;;;;;;;12.73;10.43;;;21.00;50.50;;;;;;5082304;28;20357;-66
2024/01/26 02:11:48;;;;;;;12.20;10.77;;;21.00;50.50;;;;;;5081701;28;20182;-65
2024/01/26 02:14:13;;;;;;;12.85;10.90;;;21.00;50.50;;;;;;5072486;28;20484;-66
2024/01/26 02:16:39;;;;;;;12.45;11.05;;;21.00;50.50;;;;;;5082338;28;20063;-66
2024/01/26 02:19:05;;;;;;;13.60;10.98;;;21.00;50.50;;;;;;5082497;28;20533;-67
2024/01/26 02:21:30;;;;;;;12.18;10.73;;;21.00;50.50;;;;;;5062217;28;20031;-67
2024/01/26 02:23:56;;;;;;;12.75;11.15;;;21.00;50.50;;;;;;5082331;28;20032;-67
2024/01/26 02:26:22;;;;;;;11.57;10.25;;;21.00;50.50;;;;;;5082258;28;20062;-67
2024/01/26 02:28:47;;;;;;;12.55;10.25;;;20.90;50.50;;;;;;5081436;28;20063;-67
2024/01/26 02:31:13;;;;;;;12.15;10.70;;;21.00;50.50;;;;;;5081644;28;20389;-67
2024/01/26 02:33:38;;;;;;;11.63;10.38;;;21.00;50.50;;;;;;5081761;28;20043;-67
2024/01/26 02:36:04;;;;;;;10.93;9.80;;;21.00;50.50;;;;;;5079720;28;20139;-67
2024/01/26 02:38:30;;;;;;;11.23;9.85;;;20.90;50.50;;;;;;5080558;28;20028;-67
2024/01/26 02:40:55;;;;;;;11.23;9.65;;;20.90;50.50;;;;;;5080220;28;20013;-67
2024/01/26 02:43:21;;;;;;;11.30;9.57;;;20.90;50.50;;;;;;5062863;28;20549;-67
2024/01/26 02:45:47;;;;;;;11.07;9.20;;;20.90;50.50;;;;;;5080920;28;20544;-67
2024/01/26 02:48:13;;;;;;;11.98;9.77;;;20.90;50.50;;;;;;5081155;28;20403;-67
2024/01/26 02:50:39;;;;;;;10.50;9.40;;;20.90;50.50;;;;;;5078978;28;20093;-67
2024/01/26 02:53:05;;;;;;;11.55;9.82;;;20.90;50.50;;;;;;5079833;28;20028;-67
2024/01/26 02:55:31;;;;;;;10.63;9.35;;;20.90;50.60;;;;;;5080524;28;20028;-67
2024/01/26 02:57:56;;;;;;;10.98;9.57;;;20.90;50.60;;;;;;5077749;28;20024;-67
2024/01/26 03:00:22;;;;;;;10.35;9.25;;;20.80;50.50;;;;;;5078424;28;20193;-66
2024/01/26 03:02:48;;;;;;;10.23;8.68;;;20.90;50.60;;;;;;5081118;28;20020;-66
2024/01/26 03:05:13;;;;;;;10.10;9.07;;;20.90;50.60;;;;;;5078924;28;20032;-66
2024/01/26 03:07:39;;;;;;;10.25;8.40;;;20.80;50.50;;;;;;5081528;28;20093;-66
2024/01/26 03:10:05;;;;;;;9.77;8.77;;;20.80;50.60;;;;;;5082442;28;20032;-66
2024/01/26 03:12:33;;;;;;;9.60;8.57;;;20.80;50.60;;;;;;5078029;28;20553;-66
2024/01/26 03:14:59;;;;;;;9.30;8.25;;;20.80;50.60;;;;;;5083034;28;20070;-65
2024/01/26 03:17:25;;;;;;;10.63;8.75;;;20.80;50.60;;;;;;5081499;28;20042;-66
2024/01/26 03:19:50;;;;;;;9.80;8.80;;;20.80;50.60;;;;;;5079445;28;20023;-66
2024/01/26 03:22:16;;;;;;;9.65;8.65;;;20.80;50.60;;;;;;5071761;28;20020;-66
2024/01/26 03:24:44;;;;;;;9.15;8.10;;;20.80;50.60;;;;;;5060559;28;20043;-66
2024/01/26 03:27:10;;;;;;;9.93;8.13;;;20.80;50.60;;;;;;5063476;28;20887;-66
2024/01/26 03:29:35;;;;;;;8.70;7.80;;;20.70;50.60;;;;;;5081285;28;20036;-64
2024/01/26 03:32:01;;;;;;;8.75;7.80;;;20.80;50.60;;;;;;5080076;28;20028;-65
2024/01/26 03:34:27;;;;;;;9.95;8.60;;;20.70;50.60;;;;;;5080744;28;20480;-65
2024/01/26 03:36:52;;;;;;;8.48;7.57;;;20.70;50.60;;;;;;5080351;28;20491;-64
2024/01/26 03:39:18;;;;;;;8.90;7.95;;;20.70;50.60;;;;;;5081562;28;20078;-64
2024/01/26 03:41:44;;;;;;;9.07;7.80;;;20.70;50.60;;;;;;5080423;28;20032;-65
2024/01/26 03:44:11;;;;;;;9.15;8.15;;;20.70;50.60;;;;;;5080227;28;20098;-65
2024/01/26 03:46:42;;;;;;;8.45;7.47;;;20.70;50.60;;;;;;5082348;28;20031;-65
2024/01/26 03:49:09;;;;;;;8.95;7.53;;;20.70;50.60;;;;;;5079470;28;20031;-66
2024/01/26 03:51:35;;;;;;;8.98;7.35;;;20.70;50.60;;;;;;5079615;28;20024;-66
2024/01/26 03:54:01;;;;;;;8.35;7.35;;;20.70;50.60;;;;;;5081040;28;20032;-66
2024/01/26 03:56:27;;;;;;;8.20;7.10;;;20.70;50.60;;;;;;5080452;28;20034;-66
2024/01/26 03:58:53;;;;;;;8.63;7.72;;;20.70;50.60;;;;;;5080659;28;20414;-66
2024/01/26 04:01:19;;;;;;;8.25;7.13;;;20.70;50.60;;;;;;5076609;28;20388;-66
2024/01/26 04:03:45;;;;;;;7.80;6.97;;;20.70;50.70;;;;;;5078325;28;20040;-65
2024/01/26 04:06:10;;;;;;;8.48;7.43;;;20.70;50.60;;;;;;5079358;28;20028;-66
2024/01/26 04:08:36;;;;;;;8.25;6.93;;;20.70;50.70;;;;;;5079519;28;20028;-66
2024/01/26 04:11:02;;;;;;;8.38;7.10;;;20.70;50.70;;;;;;5070218;28;20028;-66
2024/01/26 04:13:28;;;;;;;7.40;6.65;;;20.70;50.70;;;;;;5077730;28;20448;-66
2024/01/26 04:15:53;;;;;;;7.55;6.75;;;20.70;50.70;;;;;;5081381;28;20024;-66
2024/01/26 04:18:19;;;;;;;8.57;7.05;;;20.60;50.60;;;;;;5078443;28;20035;-66
2024/01/26 04:20:48;;;;;;;7.65;6.80;;;20.60;50.60;;;;;;5078070;28;20071;-66
2024/01/26 04:23:14;;;;;;;8.10;6.90;;;20.60;50.60;;;;;;5080422;28;20025;-66
2024/01/26 04:25:40;;;;;;;7.30;6.50;;;20.60;50.60;;;;;;5079386;28;20071;-66
2024/01/26 04:28:06;;;;;;;7.82;6.53;;;20.60;50.60;;;;;;5081162;28;20101;-66
2024/01/26 04:30:31;;;;;;;6.97;6.28;;;20.60;50.60;;;;;;5079920;28;20035;-66
2024/01/26 04:32:57;;;;;;;7.80;6.78;;;20.60;50.70;;;;;;5080925;28;20031;-66
2024/01/26 04:35:23;;;;;;;6.60;5.75;;;20.60;50.70;;;;;;5074981;28;20028;-67
2024/01/26 04:37:48;;;;;;;6.97;6.28;;;20.60;50.70;;;;;;5080688;28;20024;-66
2024/01/26 04:40:14;;;;;;;7.43;6.15;;;20.60;50.70;;;;;;5081655;28;20031;-66
2024/01/26 04:42:39;;;;;;;6.75;6.05;;;20.60;50.70;;;;;;5079357;28;20031;-65
2024/01/26 04:45:05;;;;;;;7.50;5.47;;;20.60;50.70;;;;;;5080157;28;20373;-65
2024/01/26 04:47:31;;;;;;;6.88;6.18;;;20.60;50.70;;;;;;5080447;28;20036;-65
2024/01/26 04:49:57;;;;;;;7.03;6.18;;;20.60;51.20;;;;;;5080634;28;20037;-65
2024/01/26 04:52:22;;;;;;;6.97;5.70;;;20.60;50.70;;;;;;5077160;28;20032;-64
2024/01/26 04:54:48;;;;;;;6.75;5.50;;;20.60;50.70;;;;;;5070583;28;20028;-65
2024/01/26 04:57:14;;;;;;;6.97;6.15;;;20.60;50.70;;;;;;5079531;28;20078;-64
2024/01/26 04:59:39;;;;;;;7.18;6.20;;;20.60;50.70;;;;;;5079252;28;20052;-66
2024/01/26 05:02:05;;;;;;;5.72;5.13;;;20.50;50.70;;;;;;5078912;28;20537;-66
2024/01/26 05:04:31;;;;;;;6.35;5.60;;;20.60;50.70;;;;;;5079815;28;20028;-66
2024/01/26 05:06:56;;;;;;;6.65;5.95;;;20.50;50.70;;;;;;5078579;28;20364;-66
2024/01/26 05:09:22;;;;;;;7.35;5.88;;;20.50;50.70;;;;;;5078865;28;20028;-66
2024/01/26 05:11:48;;;;;;;6.72;5.80;;;20.60;50.70;;;;;;5069465;28;20020;-66
2024/01/26 05:14:14;;;;;;;5.70;5.10;;;20.50;50.70;;;;;;5077989;28;20032;-66
2024/01/26 05:16:39;;;;;;;6.05;5.13;;;20.50;50.70;;;;;;5076881;28;20452;-66
2024/01/26 05:19:05;;;;;;;6.22;5.53;;;20.50;50.70;;;;;;5079462;28;20162;-66
2024/01/26 05:21:30;;;;;;;5.68;4.97;;;20.50;50.70;;;;;;5077543;28;20899;-66
2024/01/26 05:23:56;;;;;;;6.40;5.63;;;20.50;50.80;;;;;;5079446;28;20029;-67
2024/01/26 05:26:22;;;;;;;6.43;5.35;;;20.50;50.80;;;;;;5078213;28;20059;-66
2024/01/26 05:28:47;;;;;;;6.28;5.20;;;20.50;50.80;;;;;;5069138;28;20368;-66
2024/01/26 05:31:13;;;;;;;6.20;5.00;;;20.50;50.80;;;;;;5076990;28;20036;-66
2024/01/26 05:33:38;;;;;;;5.93;5.20;;;20.50;50.80;;;;;;5078265;28;20082;-66
2024/01/26 05:36:04;;;;;;;5.28;4.78;;;20.50;50.80;;;;;;5077043;28;20074;-66
2024/01/26 05:38:30;;;;;;;5.57;4.90;;;20.50;50.80;;;;;;5076942;28;20545;-66
2024/01/26 05:40:56;;;;;;;5.60;5.00;;;20.50;50.80;;;;;;5068413;28;20052;-66
2024/01/26 05:43:22;;;;;;;6.70;5.22;;;20.50;50.80;;;;;;5077647;28;20082;-67
2024/01/26 05:45:47;;;;;;;6.53;5.38;;;20.50;50.80;;;;;;5077624;28;20036;-66
2024/01/26 05:48:13;;;;;;;6.03;5.25;;;20.50;50.80;;;;;;5077737;28;20028;-67
2024/01/26 05:50:39;;;;;;;6.03;5.05;;;20.50;50.80;;;;;;5078016;28;20033;-65
2024/01/26 05:53:04;;;;;;;5.80;4.95;;;20.50;50.80;;;;;;5078847;28;20192;-66
2024/01/26 05:55:30;;;;;;;5.30;4.80;;;20.50;50.80;;;;;;5078545;28;20793;-66
2024/01/26 05:57:56;;;;;;;5.40;4.80;;;20.40;50.80;;;;;;5078664;28;20109;-65
2024/01/26 06:00:22;;;;;;;5.95;4.70;;;20.40;50.80;;;;;;5079286;28;20028;-66
2024/01/26 06:02:47;;;;;;;6.30;4.80;;;20.40;50.80;;;;;;5074121;28;20454;-67
2024/01/26 06:05:13;;;;;;;5.72;4.80;;;20.50;50.90;;;;;;5076490;28;20518;-66
2024/01/26 06:07:39;;;;;;;5.57;4.85;;;20.50;50.90;;;;;;5077446;28;20029;-66
2024/01/26 06:10:06;;;;;;;5.55;4.72;;;20.50;50.90;;;;;;5075471;28;20447;-66
2024/01/26 06:12:31;;;;;;;6.00;5.13;;;20.40;50.90;;;;;;5077903;28;20027;-65
2024/01/26 06:14:57;;;;;;;5.53;4.57;;;20.40;50.90;;;;;;5077312;28;20036;-66
2024/01/26 06:17:23;;;;;;;6.93;5.20;;;20.40;50.90;;;;;;5091651;28;20434;-66
2024/01/26 06:19:48;;;;;;;5.30;4.80;;;20.40;50.90;;;;;;5075665;28;20028;-66
2024/01/26 06:22:14;;;;;;;7.38;5.00;;;20.50;51.00;;;;;;5079161;28;20024;-66
2024/01/26 06:24:39;;;;;;;5.47;4.80;;;20.40;51.20;;;;;;5077905;28;20084;-66
2024/01/26 06:27:05;;;;;;;5.63;5.03;;;20.40;51.20;;;;;;5068827;28;20024;-66
2024/01/26 06:29:31;;;;;;;4.60;4.00;;;20.40;51.70;;;;;;5078630;28;20083;-66
2024/01/26 06:31:59;;;;;;;5.38;4.70;;;20.40;51.10;;;;;;5080023;28;20016;-67
2024/01/26 06:34:26;;;;;;;5.00;4.22;;;20.40;51.60;;;;;;5080784;28;20480;-67
2024/01/26 06:36:51;;;;;;;5.07;4.03;;;20.40;51.10;;;;;;5081067;28;20029;-67
2024/01/26 06:39:17;;;;;;;5.32;4.57;;;20.40;51.10;;;;;;5079744;28;20024;-67
2024/01/26 06:41:43;;;;;;;5.68;4.50;;;20.40;51.10;;;;;;5081023;28;20029;-67
2024/01/26 06:44:09;;;;;;;5.50;4.47;;;20.40;51.60;;;;;;5082976;28;20448;-68
2024/01/26 06:46:35;;;;;;;5.88;4.30;;;20.40;51.10;;;;;;5081773;28;20058;-67
2024/01/26 06:49:04;;;;;;;5.07;4.13;;;20.40;51.10;;;;;;5080994;28;20064;-67
2024/01/26 06:51:29;;;;;;;5.43;4.13;;;20.40;51.10;;;;;;5061529;28;20476;-68
2024/01/26 06:53:56;;;;;;;4.90;4.15;;;20.40;51.10;;;;;;5081373;28;20032;-67
2024/01/26 06:56:22;;;;;;;5.80;4.28;;;20.40;51.10;;;;;;5080871;28;20020;-67
2024/01/26 06:58:47;;;;;;;4.70;4.20;;;20.40;51.10;;;;;;5070867;28;20088;-67
2024/01/26 07:01:14;;;;;;;4.75;4.03;;;20.40;51.10;;;;;;5079949;28;20036;-64
2024/01/26 07:03:40;;;;;;;5.82;4.30;;;20.40;51.10;;;;;;5065351;28;20104;-65
2024/01/26 07:06:05;;;;;;;4.70;4.20;;;20.30;51.00;;;;;;5084028;28;20123;-65
2024/01/26 07:08:31;;;;;;;5.15;4.40;;;20.40;51.10;;;;;;5079223;28;20480;-64
2024/01/26 07:10:57;;;;;;;5.47;3.92;;;20.40;51.10;;;;;;5081151;28;20020;-65
2024/01/26 07:13:22;;;;;;;5.38;4.40;;;20.40;51.10;;;;;;5064082;28;20113;-65
2024/01/26 07:15:48;;;;;;;4.95;3.75;;;20.40;51.10;;;;;;5077747;28;20067;-65
2024/01/26 07:18:14;;;;;;;4.63;4.10;;;20.30;51.00;;;;;;5080812;28;20024;-64
2024/01/26 07:20:39;;;;;;;4.85;4.10;;;20.30;51.10;;;;;;5077856;28;20012;-67
2024/01/26 07:23:05;;;;;;;4.15;3.45;;;20.30;51.10;;;;;;5079335;28;20025;-67
2024/01/26 07:25:30;;;;;;;5.25;3.95;;;20.30;51.10;;;;;;5077902;28;20414;-67
2024/01/26 07:27:56;;;;;;;4.60;3.80;;;20.30;51.10;;;;;;5079020;28;20031;-67
2024/01/26 07:30:22;;;;;;;4.72;3.90;;;20.40;51.10;;;;;;5082798;28;20024;-67
2024/01/26 07:32:47;;;;;;;4.10;3.70;;;20.40;51.20;;;;;;5079437;28;20078;-67
2024/01/26 07:35:13;;;;;;;4.57;4.07;;;20.30;51.10;;;;;;5080410;28;20094;-67
2024/01/26 07:37:40;;;;;;;4.78;4.00;;;20.30;51.10;;;;;;5068629;28;20027;-67
2024/01/26 07:40:06;;;;;;;5.00;4.22;;;20.30;51.10;;;;;;5080153;28;20107;-66
2024/01/26 07:42:32;;;;;;;3.85;3.35;;;20.30;51.10;;;;;;5081239;28;20034;-66
2024/01/26 07:44:57;;;;;;;4.57;3.90;;;20.30;51.10;;;;;;5069901;28;20024;-65
2024/01/26 07:47:24;;;;;;;4.20;3.80;;;20.30;51.10;;;;;;5079489;28;20063;-66
2024/01/26 07:49:49;;;;;;;4.30;3.70;;;20.30;51.10;;;;;;5080566;28;20024;-66
2024/01/26 07:52:15;;;;;;;3.92;3.50;;;20.30;51.10;;;;;;5076662;28;20030;-66
2024/01/26 07:54:41;;;;;;;4.88;3.83;;;20.30;51.10;;;;;;5082777;28;20032;-66
2024/01/26 07:57:07;;;;;;;3.90;3.42;;;20.30;51.10;;;;;;5075648;28;20297;-67
2024/01/26 07:59:32;;;;;;;4.68;3.60;;;20.30;51.10;;;;;;5081777;28;20020;-66
2024/01/26 08:01:58;;;;;;;4.30;3.33;;;20.30;51.10;;;;;;5078491;28;20082;-66
2024/01/26 08:04:23;;;;;;;4.57;3.80;;;20.30;51.10;;;;;;5076885;28;20553;-66
2024/01/26 08:06:49;;;;;;;4.40;3.33;;;20.30;51.10;;;;;;5080712;28;20031;-66
2024/01/26 08:09:15;;;;;;;4.30;3.38;;;20.30;51.10;;;;;;5075895;28;20483;-66
2024/01/26 08:11:40;;;;;;;4.50;3.85;;;20.30;51.10;;;;;;5081100;28;20108;-67
2024/01/26 08:14:06;;;;;;;4.18;3.45;;;20.30;51.10;;;;;;5079833;28;20025;-67
2024/01/26 08:16:32;;;;;;;4.93;3.50;;;20.30;51.10;;;;;;5081286;28;20031;-67
2024/01/26 08:18:58;;;;;;;4.15;3.55;;;20.30;51.10;;;;;;5080343;28;20083;-67
2024/01/26 08:21:24;;;;;;;4.18;3.38;;;20.30;51.20;;;;;;5077599;28;20044;-67
2024/01/26 08:23:49;;;;;;;4.38;3.40;;;20.30;51.10;;;;;;5077359;28;20099;-68
2024/01/26 08:26:15;;;;;;;4.45;3.70;;;20.30;51.10;;;;;;5077285;28;20476;-68
2024/01/26 08:28:41;;;;;;;4.13;3.45;;;20.30;51.10;;;;;;5079339;28;20043;-68
2024/01/26 08:31:06;;;;;;;4.43;3.50;;;20.30;51.20;;;;;;5078853;28;20098;-64
2024/01/26 08:33:32;;;;;;;4.22;3.45;;;20.20;51.10;;;;;;5078787;28;20067;-64
2024/01/26 08:35:58;;;;;;;4.18;3.47;;;20.30;51.20;;;;;;5078248;28;20145;-65
2024/01/26 08:38:24;;;;;;;4.55;3.30;;;20.30;51.20;;;;;;5076425;28;20051;-64
2024/01/26 08:40:49;;;;;;;4.45;3.25;;;20.30;51.20;;;;;;5077290;28;20076;-63
2024/01/26 08:43:15;;;;;;;3.40;2.97;;;20.20;51.10;;;;;;5078777;28;20039;-63
2024/01/26 08:45:41;;;;;;;4.10;3.13;;;20.20;51.10;;;;;;5076512;28;20065;-64
2024/01/26 08:48:07;;;;;;;3.60;2.83;;;20.20;51.10;;;;;;5081636;28;20567;-65
2024/01/26 08:50:32;;;;;;;4.07;3.17;;;20.20;51.10;;;;;;5078019;28;20392;-66
2024/01/26 08:52:58;;;;;;;4.20;3.30;;;20.20;51.20;;;;;;5077280;28;20103;-67
2024/01/26 08:55:24;;;;;;;4.50;3.60;;;20.20;51.20;;;;;;5076886;28;20077;-66
2024/01/26 08:57:50;;;;;;;4.53;3.47;;;20.20;51.70;;;;;;5080427;28;20024;-66
2024/01/26 09:00:19;;;;;;;3.63;2.95;;;20.20;51.20;;;;;;5076912;28;20026;-66
2024/01/26 09:02:45;;;;;;;4.10;3.13;;;20.20;51.20;;;;;;5069052;28;20016;-67
2024/01/26 09:05:11;;;;;;;3.55;3.08;;;20.20;51.20;;;;;;5077285;28;20055;-66
2024/01/26 09:07:37;;;;;;;3.60;2.92;;;20.20;51.20;;;;;;5076896;28;20024;-66
2024/01/26 09:10:03;;;;;;;3.65;2.92;;;20.20;51.20;;;;;;5076236;28;20039;-66
2024/01/26 09:12:29;;;;;;;4.05;2.88;;;20.20;51.20;;;;;;5079023;28;20103;-66
2024/01/26 09:14:55;;;;;;;3.72;3.20;;;20.20;51.20;;;;;;5068253;28;20566;-66
2024/01/26 09:17:20;;;;;;;4.50;3.40;;;20.20;51.20;;;;;;5077911;28;20032;-66
2024/01/26 09:19:46;;;;;;;4.20;3.10;;;20.20;51.20;;;;;;5078509;28;20016;-64
2024/01/26 09:22:12;;;;;;;5.07;3.40;;;20.20;51.20;;;;;;5076909;28;20028;-65
2024/01/26 09:24:37;;;;;;;3.75;3.00;;;20.20;51.20;;;;;;5076903;28;20024;-64
2024/01/26 09:27:03;;;;;;;4.35;2.80;;;20.20;51.20;;;;;;5060243;28;20037;-64
2024/01/26 09:29:29;;;;;;;4.20;3.25;;;20.20;51.20;;;;;;5061249;28;20037;-64
2024/01/26 09:31:56;;;;;;;3.47;2.95;;;20.20;51.20;;;;;;5079525;28;20040;-64
2024/01/26 09:34:22;;;;;;;3.95;3.03;;;20.20;51.20;;;;;;5077662;28;20114;-63
2024/01/26 09:36:48;;;;;;;3.65;2.95;;;20.20;51.20;;;;;;5068403;28;20461;-64
2024/01/26 09:39:13;;;;;;;3.65;3.03;;;20.20;51.20;;;;;;5080227;28;20203;-65
2024/01/26 09:41:39;;;;;;;3.50;2.92;;;20.20;51.20;;;;;;5079587;28;20085;-67
2024/01/26 09:44:05;;;;;;;3.53;2.83;;;20.20;51.20;;;;;;5078362;28;20066;-66
2024/01/26 09:46:31;;;;;;;3.30;2.90;;;20.20;51.20;;;;;;5078046;28;20480;-66
2024/01/26 09:48:58;;;;;;;3.80;3.03;;;20.20;51.20;;;;;;5079742;28;20085;-66
2024/01/26 09:51:26;;;;;;;3.58;2.80;;;20.20;51.30;;;;;;5080166;28;20093;-67
2024/01/26 09:53:57;;;;;;;3.35;2.83;;;20.20;51.30;;;;;;5076921;28;20074;-66
2024/01/26 09:56:23;;;;;;;3.33;2.80;;;20.20;51.20;;;;;;5078870;28;20059;-66
2024/01/26 09:58:49;;;;;;;3.33;2.85;;;20.20;51.30;;;;;;5079041;28;20020;-67
2024/01/26 10:01:20;;;;;;;3.20;2.90;;;20.20;51.30;;;;;;5077976;28;20028;-65
2024/01/26 10:03:46;;;;;;;3.67;3.10;;;20.20;51.30;;;;;;5076320;28;20111;-65
2024/01/26 10:06:12;;;;;;;4.00;3.00;;;20.20;51.30;;;;;;5079787;28;20107;-66
2024/01/26 10:08:41;;;;;;;4.00;2.90;;;20.10;51.20;;;;;;5081063;28;20032;-64
2024/01/26 10:11:07;;;;;;;4.28;3.13;;;20.10;51.20;;;;;;5083379;28;20480;-65
2024/01/26 10:13:32;;;;;;;3.50;2.65;;;20.20;51.30;;;;;;5082216;28;20112;-64
2024/01/26 10:16:09;;;;;;;3.88;2.80;;;20.10;51.20;;;;;;5081793;28;20353;-63
2024/01/26 10:18:52;;;;;;;3.10;2.50;;;20.20;51.30;;;;;;5080995;28;20077;-64
2024/01/26 10:21:18;;;;;;;3.05;2.47;;;20.20;51.30;;;;;;5082011;28;20107;-66
2024/01/26 10:23:44;;;;;;;4.50;2.75;;;20.20;51.30;;;;;;5079948;28;20415;-64
2024/01/26 10:26:10;;;;;;;3.38;2.63;;;20.20;51.30;;;;;;5071455;28;20035;-64
2024/01/26 10:28:37;;;;;;;3.70;2.50;;;20.10;51.20;;;;;;5081702;28;20369;-65
2024/01/26 10:31:02;;;;;;;3.35;2.70;;;20.20;51.30;;;;;;5082299;28;20211;-63
2024/01/26 10:33:33;;;;;;;3.50;2.78;;;20.20;51.30;;;;;;5081813;28;20461;-63
2024/01/26 10:36:00;;;;;;;3.00;2.50;;;20.20;51.30;;;;;;5080064;28;20518;-64
2024/01/26 10:38:29;;;;;;;3.35;2.50;;;20.20;51.30;;;;;;5079520;28;20379;-64
2024/01/26 10:41:05;;;;;;;3.55;2.50;;;20.10;51.20;;;;;;5079569;28;20495;-64
2024/01/26 10:43:31;;;;;;;3.20;2.55;;;20.10;51.20;;;;;;5081392;28;20028;-64
2024/01/26 10:45:59;;;;;;;2.72;2.10;;;20.20;51.30;;;;;;5080466;28;20106;-64
2024/01/26 10:48:25;;;;;;;2.80;2.22;;;20.20;51.30;;;;;;5080927;28;20024;-64
2024/01/26 10:50:51;;;;;;;2.60;2.00;;;20.10;51.60;;;;;;5079635;28;20020;-66
2024/01/26 10:53:19;;;;;;;3.30;2.30;;;20.10;51.10;;;;;;5070002;28;20074;-65
2024/01/26 10:55:45;;;;;;;3.22;2.53;;;20.20;51.20;;;;;;5082356;28;20526;-66
2024/01/26 10:58:11;;;;;;;3.38;2.30;;;20.20;51.20;;;;;;5061008;28;20020;-66
2024/01/26 11:00:37;;;;;;;3.10;2.40;;;20.10;51.10;;;;;;5081929;28;20040;-62
2024/01/26 11:03:03;;;;;;;3.30;2.70;;;20.20;51.20;;;;;;5081589;28;20038;-63
2024/01/26 11:05:29;;;;;;;3.20;2.40;;;20.10;51.10;;;;;;5078876;28;20381;-62
2024/01/26 11:07:55;;;;;;;2.88;2.30;;;20.10;51.10;;;;;;5081239;28;20111;-63
2024/01/26 11:10:26;;;;;;;3.22;2.28;;;20.20;51.20;;;;;;5080768;28;20440;-70
2024/01/26 11:13:02;;;;;;;2.88;2.20;;;20.10;51.10;;;;;;5081749;28;20025;-70
2024/01/26 11:15:29;;;;;;;2.70;2.20;;;20.10;51.10;;;;;;5080353;28;20108;-71
2024/01/26 11:17:56;;;;;;;3.60;2.53;;;20.10;51.10;;;;;;5080454;28;20049;-70
2024/01/26 11:20:30;;;;;;;2.83;2.05;;;20.20;51.20;;;;;;5081625;28;20102;-70
2024/01/26 11:22:58;;;;;;;3.22;2.20;;;20.20;51.20;;;;;;5080262;28;20381;-69
2024/01/26 11:25:23;;;;;;;3.03;2.28;;;20.20;51.20;;;;;;5078484;28;20455;-70
2024/01/26 11:27:58;;;;;;;2.97;2.30;;;20.20;51.20;;;;;;5080222;28;20055;-70
2024/01/26 11:30:24;;;;;;;2.85;2.22;;;20.20;51.50;;;;;;5081076;28;20491;-70
2024/01/26 11:32:51;;;;;;;2.90;2.40;;;20.20;51.60;;;;;;5063118;28;20028;-69
2024/01/26 11:35:17;;;;;;;3.15;2.20;;;20.20;52.10;;;;;;5079590;28;20510;-69
2024/01/26 11:37:43;;;;;;;3.08;2.40;;;20.20;51.70;;;;;;5080744;28;20040;-70
2024/01/26 11:40:10;;;;;;;2.60;2.10;;;20.30;51.70;;;;;;5079379;28;20139;-68
2024/01/26 11:42:39;;;;;;;3.10;2.20;;;20.30;51.70;;;;;;5079898;28;20446;-68
2024/01/26 11:45:12;;;;;;;2.88;2.00;;;20.30;51.70;;;;;;5079593;28;20047;-68
2024/01/26 11:47:39;;;;;;;2.78;2.10;;;20.30;51.60;;;;;;5079878;28;20036;-68
2024/01/26 11:50:11;;;;;;;2.88;2.22;;;20.40;51.60;;;;;;5081475;28;20543;-68
2024/01/26 11:52:38;;;;;;;2.95;2.10;;;20.30;51.70;;;;;;5079069;28;20476;-68
2024/01/26 11:55:06;;;;;;;2.95;2.10;;;20.40;51.70;;;;;;5079843;28;20063;-67
2024/01/26 11:57:35;;;;;;;2.90;2.20;;;20.30;51.70;;;;;;5078499;28;20059;-68
2024/01/26 12:00:10;;;;;;;3.08;2.17;;;20.30;51.70;;;;;;5080938;28;20017;-68
2024/01/26 12:02:36;;;;;;;2.50;2.00;;;20.30;51.60;;;;;;5079165;28;20361;-68
2024/01/26 12:05:02;;;;;;;2.78;2.10;;;20.30;51.60;;;;;;5078787;28;20036;-68
2024/01/26 12:07:28;;;;;;;2.88;2.10;;;20.30;51.60;;;;;;5070168;28;20020;-68
2024/01/26 12:09:53;;;;;;;2.35;2.00;;;20.30;51.60;;;;;;5079026;28;20081;-68
2024/01/26 12:12:19;;;;;;;3.10;2.15;;;20.30;51.60;;;;;;5082183;28;20482;-68
2024/01/26 12:14:45;;;;;;;2.50;2.05;;;20.30;51.60;;;;;;5080319;28;20104;-68
2024/01/26 12:17:11;;;;;;;2.60;2.00;;;20.30;51.60;;;;;;5078298;28;20135;-68
2024/01/26 12:19:38;;;;;;;2.83;1.88;;;20.30;51.60;;;;;;5077349;28;20168;-63
2024/01/26 12:22:09;;;;;;;2.80;1.90;;;20.40;51.70;;;;;;5079736;28;20097;-62
2024/01/26 12:24:36;;;;;;;2.28;1.77;;;20.30;51.50;;;;;;5076018;28;20060;-63
2024/01/26 12:27:02;;;;;;;3.03;2.30;;;20.30;52.00;;;;;;5077784;28;20074;-64
2024/01/26 12:29:31;;;;;;;2.47;1.70;;;20.40;51.60;;;;;;5076906;28;20067;-62
2024/01/26 12:32:08;;;;;;;2.43;1.87;;;20.30;51.50;;;;;;5079731;28;20048;-63
2024/01/26 12:34:35;;;;;;;2.38;1.90;;;20.30;51.50;;;;;;5079871;28;20364;-62
2024/01/26 12:37:01;;;;;;;2.72;1.85;;;20.30;51.50;;;;;;5078682;28;20468;-62